createdAt,value
2022-08-05T00:01:35.631Z,64.24
2022-08-05T00:04:08.303Z,63.95
2022-08-05T00:06:37.552Z,64.13
2022-08-05T00:09:12.645Z,64.08
2022-08-05T00:11:48.436Z,64.29
2022-08-05T00:14:19.268Z,64.18
2022-08-05T00:16:52.638Z,64.56
2022-08-05T00:19:23.973Z,64.59
2022-08-05T00:21:54.252Z,64.36
2022-08-05T00:24:31.041Z,64.18
2022-08-05T00:27:00.513Z,64.33
2022-08-05T00:29:37.723Z,64.34
2022-08-05T00:32:12.702Z,64.86
2022-08-05T00:35:03.679Z,64.85
2022-08-05T00:37:53.482Z,64.69
2022-08-05T00:40:28.465Z,64.86
2022-08-05T00:43:00.849Z,65.25
2022-08-05T00:45:43.115Z,65.11
2022-08-05T00:48:14.450Z,65.41
2022-08-05T00:50:46.117Z,65.48
2022-08-05T00:54:00.820Z,65.32
2022-08-05T00:56:08.150Z,65.64
2022-08-05T00:58:37.266Z,65.87
2022-08-05T01:01:09.622Z,65.55
2022-08-05T01:03:38.925Z,65.48
2022-08-05T01:06:11.268Z,65.81
2022-08-05T01:08:46.370Z,65.93
2022-08-05T01:11:24.210Z,65.57
2022-08-05T01:14:08.913Z,65.46
2022-08-05T01:16:52.190Z,65.57
2022-08-05T01:20:02.451Z,65.69
2022-08-05T01:22:47.193Z,65.73
2022-08-05T01:25:40.841Z,65.86
2022-08-05T01:28:25.881Z,65.98
2022-08-05T01:30:58.936Z,65.74
2022-08-05T01:33:35.515Z,65.70
2022-08-05T01:36:12.843Z,65.37
2022-08-05T01:38:48.342Z,65.30
2022-08-05T01:41:25.726Z,65.14
2022-08-05T01:43:57.945Z,65.32
2022-08-05T01:46:42.332Z,65.21
2022-08-05T01:49:23.858Z,65.39
2022-08-05T01:51:58.774Z,65.15
2022-08-05T01:54:34.828Z,65.17
2022-08-05T01:58:11.162Z,65.32
2022-08-05T02:00:11.664Z,65.35
2022-08-05T02:02:46.484Z,65.88
2022-08-05T02:05:28.607Z,66.18
2022-08-05T02:08:01.220Z,66.09
2022-08-05T02:10:36.345Z,66.05
2022-08-05T02:13:16.024Z,65.84
2022-08-05T02:15:51.393Z,65.77
2022-08-05T02:18:30.717Z,65.61
2022-08-05T02:21:13.256Z,65.49
2022-08-05T02:23:48.465Z,65.61
2022-08-05T02:26:23.611Z,65.32
2022-08-05T02:28:58.243Z,65.64
2022-08-05T02:31:34.897Z,65.99
2022-08-05T02:34:09.371Z,66.67
2022-08-05T02:36:42.855Z,66.39
2022-08-05T02:39:12.220Z,66.35
2022-08-05T02:41:58.274Z,66.07
2022-08-05T02:44:32.291Z,66.36
2022-08-05T02:47:04.386Z,66.40
2022-08-05T02:49:40.404Z,66.58
2022-08-05T02:52:13.646Z,66.32
2022-08-05T02:55:01.964Z,66.39
2022-08-05T02:58:10.280Z,66.26
2022-08-05T03:00:26.143Z,66.21
2022-08-05T03:07:40.392Z,66.62
2022-08-05T03:10:00.594Z,66.69
2022-08-05T03:12:32.265Z,66.94
2022-08-05T03:15:01.376Z,66.88
2022-08-05T03:17:32.535Z,66.83
2022-08-05T03:20:11.839Z,67.40
2022-08-05T03:22:44.174Z,67.85
2022-08-05T03:26:02.589Z,68.14
2022-08-05T03:28:07.169Z,68.05
2022-08-05T03:30:41.038Z,68.12
2022-08-05T03:33:11.423Z,68.30
2022-08-05T03:35:41.951Z,68.61
2022-08-05T03:38:14.829Z,68.54
2022-08-05T03:40:45.140Z,68.75
2022-08-05T03:44:09.702Z,69.14
2022-08-05T03:46:08.277Z,68.90
2022-08-05T03:48:37.260Z,69.00
2022-08-05T03:52:49.027Z,68.73
2022-08-05T03:55:49.827Z,69.10
2022-08-05T03:57:00.585Z,68.68
2022-08-05T03:59:47.252Z,68.46
2022-08-05T04:02:37.825Z,68.72
2022-08-05T04:05:10.286Z,68.74
2022-08-05T04:07:57.287Z,68.80
2022-08-05T04:10:37.228Z,68.58
2022-08-05T04:13:08.759Z,68.54
2022-08-05T04:15:37.714Z,68.08
2022-08-05T04:18:09.721Z,67.76
2022-08-05T04:20:41.396Z,68.25
2022-08-05T04:23:12.544Z,67.97
2022-08-05T04:26:00.705Z,68.00
2022-08-05T04:28:31.906Z,67.97
2022-08-05T04:31:02.009Z,68.01
2022-08-05T04:34:18.609Z,68.35
2022-08-05T04:36:44.825Z,68.30
2022-08-05T04:39:14.806Z,68.23
2022-08-05T04:41:45.624Z,68.18
2022-08-05T04:44:14.874Z,67.94
2022-08-05T04:46:49.964Z,67.89
2022-08-05T04:49:38.084Z,68.22
2022-08-05T04:52:08.431Z,68.40
2022-08-05T04:54:37.229Z,67.98
2022-08-05T04:57:07.771Z,67.81
2022-08-05T04:59:38.464Z,67.71
2022-08-05T05:02:37.468Z,67.82
2022-08-05T05:05:02.295Z,67.95
2022-08-05T05:07:35.323Z,67.95
2022-08-05T05:10:06.699Z,67.58
2022-08-05T05:12:37.144Z,67.51
2022-08-05T05:15:10.650Z,67.59
2022-08-05T05:17:55.670Z,67.73
2022-08-05T05:20:28.641Z,67.69
2022-08-05T05:22:57.867Z,67.57
2022-08-05T05:25:40.551Z,67.69
2022-08-05T05:28:11.530Z,67.56
2022-08-05T05:30:41.218Z,67.62
2022-08-05T05:33:16.170Z,67.54
2022-08-05T05:35:47.902Z,67.40
2022-08-05T05:38:22.786Z,67.11
2022-08-05T05:40:57.240Z,67.03
2022-08-05T05:43:58.051Z,66.53
2022-08-05T05:46:18.214Z,66.48
2022-08-05T05:48:49.102Z,66.31
2022-08-05T05:51:22.703Z,66.49
2022-08-05T05:53:57.997Z,66.82
2022-08-05T05:56:33.255Z,67.00
2022-08-05T05:59:06.709Z,66.84
2022-08-05T06:01:38.890Z,66.75
2022-08-05T06:04:11.914Z,66.97
2022-08-05T06:06:42.999Z,67.00
2022-08-05T06:09:16.789Z,66.58
2022-08-05T06:11:59.903Z,66.82
2022-08-05T06:14:33.440Z,66.43
2022-08-05T06:17:24.516Z,66.52
2022-08-05T06:19:57.040Z,66.47
2022-08-05T06:22:30.517Z,66.67
2022-08-05T06:25:24.471Z,66.19
2022-08-05T06:28:11.283Z,66.47
2022-08-05T06:30:42.369Z,66.42
2022-08-05T06:33:11.495Z,65.81
2022-08-05T06:36:08.025Z,65.82
2022-08-05T06:38:37.191Z,66.13
2022-08-05T06:41:07.681Z,65.39
2022-08-05T06:43:59.786Z,65.74
2022-08-05T06:46:29.821Z,65.10
2022-08-05T06:49:00.764Z,65.06
2022-08-05T06:51:31.422Z,65.18
2022-08-05T06:54:01.858Z,65.46
2022-08-05T06:56:33.893Z,64.87
2022-08-05T06:59:09.366Z,64.74
2022-08-05T07:01:41.547Z,64.46
2022-08-05T07:04:14.088Z,64.66
2022-08-05T07:06:43.287Z,64.14
2022-08-05T07:09:12.134Z,63.90
2022-08-05T07:11:46.688Z,63.40
2022-08-05T07:14:37.636Z,63.49
2022-08-05T07:18:01.904Z,63.30
2022-08-05T07:20:31.254Z,63.29
2022-08-05T07:22:45.996Z,62.54
2022-08-05T07:25:55.489Z,62.59
2022-08-05T07:28:08.339Z,62.53
2022-08-05T07:30:40.842Z,62.01
2022-08-05T07:33:16.897Z,62.03
2022-08-05T07:36:03.389Z,61.83
2022-08-05T07:38:43.307Z,61.43
2022-08-05T07:42:13.824Z,60.82
2022-08-05T07:44:14.236Z,60.34
2022-08-05T07:46:49.787Z,60.84
2022-08-05T07:49:20.745Z,60.18
2022-08-05T07:51:54.483Z,59.83
2022-08-05T07:54:30.925Z,59.43
2022-08-05T07:57:17.626Z,58.39
2022-08-05T07:59:51.881Z,56.43
2022-08-05T08:02:26.637Z,54.85
2022-08-05T08:05:01.677Z,53.20
2022-08-05T08:07:39.494Z,51.83
2022-08-05T08:10:20.547Z,50.26
2022-08-05T08:12:50.056Z,49.45
2022-08-05T08:16:34.423Z,49.41
2022-08-05T08:18:13.944Z,48.63
2022-08-05T08:21:01.805Z,48.37
2022-08-05T08:24:02.489Z,48.47
2022-08-05T08:26:26.710Z,47.70
2022-08-05T08:29:21.719Z,47.47
2022-08-05T08:31:48.859Z,47.27
2022-08-05T08:34:18.713Z,47.36
2022-08-05T08:37:04.872Z,47.29
2022-08-05T08:39:37.377Z,46.90
2022-08-05T08:42:33.769Z,46.48
2022-08-05T08:45:17.859Z,46.24
2022-08-05T08:48:12.485Z,44.94
2022-08-05T08:51:07.675Z,45.46
2022-08-05T08:53:44.294Z,45.13
2022-08-05T08:56:14.205Z,43.75
2022-08-05T08:58:47.957Z,43.78
2022-08-05T09:01:18.931Z,43.51
2022-08-05T09:03:54.245Z,43.65
2022-08-05T09:06:29.981Z,43.68
2022-08-05T09:09:03.117Z,42.93
2022-08-05T09:11:51.302Z,42.22
2022-08-05T09:14:56.728Z,43.46
2022-08-05T09:17:39.987Z,42.26
2022-08-05T09:20:05.286Z,42.05
2022-08-05T09:23:07.973Z,41.63
2022-08-05T09:26:00.104Z,40.83
2022-08-05T09:28:32.246Z,40.11
2022-08-05T09:31:22.731Z,39.55
2022-08-05T09:33:59.129Z,39.49
2022-08-05T09:36:54.366Z,38.97
2022-08-05T09:39:39.305Z,38.12
2022-08-05T09:42:20.224Z,38.01
2022-08-05T09:44:56.842Z,37.55
2022-08-05T09:47:35.178Z,37.32
2022-08-05T09:50:37.565Z,37.05
2022-08-05T09:53:07.270Z,35.72
2022-08-05T09:55:57.458Z,35.41
2022-08-05T09:58:30.182Z,35.56
2022-08-05T10:01:01.982Z,36.00
2022-08-05T10:03:59.372Z,35.39
2022-08-05T10:06:29.092Z,35.38
2022-08-05T10:09:25.192Z,34.71
2022-08-05T10:12:30.289Z,34.01
2022-08-05T10:15:22.717Z,33.52
2022-08-05T10:18:16.719Z,33.79
2022-08-05T10:20:48.589Z,33.24
2022-08-05T10:23:34.458Z,32.75
2022-08-05T10:26:13.843Z,33.00
2022-08-05T10:28:46.406Z,32.73
2022-08-05T10:33:00.861Z,32.35
2022-08-05T10:34:08.599Z,31.70
2022-08-05T10:36:39.295Z,32.49
2022-08-05T10:39:15.403Z,31.70
2022-08-05T10:42:01.417Z,32.40
2022-08-05T10:44:33.008Z,31.28
2022-08-05T10:47:27.069Z,30.68
2022-08-05T10:50:31.935Z,29.65
2022-08-05T10:53:00.072Z,30.46
2022-08-05T10:55:32.822Z,29.83
2022-08-05T10:58:20.808Z,30.49
2022-08-05T11:00:54.980Z,29.99
2022-08-05T11:03:30.936Z,29.56
2022-08-05T11:06:15.473Z,29.19
2022-08-05T11:09:18.699Z,29.27
2022-08-05T11:12:00.890Z,29.01
2022-08-05T11:14:57.502Z,29.03
2022-08-05T11:17:59.952Z,29.61
2022-08-05T11:20:38.929Z,31.00
2022-08-05T11:23:33.303Z,31.73
2022-08-05T11:26:29.110Z,31.73
2022-08-05T11:29:12.169Z,32.21
2022-08-05T11:31:57.971Z,32.59
2022-08-05T11:34:47.647Z,32.36
2022-08-05T11:38:36.626Z,31.72
2022-08-05T11:41:12.659Z,31.58
2022-08-05T11:44:06.033Z,31.68
2022-08-05T11:46:58.326Z,31.64
2022-08-05T11:49:26.974Z,31.88
2022-08-05T11:51:57.506Z,32.15
2022-08-05T11:54:34.007Z,32.68
2022-08-05T11:57:08.560Z,32.01
2022-08-05T11:59:53.647Z,32.07
2022-08-05T12:02:31.645Z,32.70
2022-08-05T12:05:07.219Z,32.93
2022-08-05T12:08:10.542Z,32.69
2022-08-05T12:10:43.806Z,33.52
2022-08-05T12:13:47.579Z,33.36
2022-08-05T12:16:14.764Z,33.28
2022-08-05T12:18:48.978Z,33.13
2022-08-05T12:21:24.263Z,33.61
2022-08-05T12:24:12.058Z,33.27
2022-08-05T12:26:44.268Z,33.70
2022-08-05T12:29:17.917Z,33.44
2022-08-05T12:31:54.593Z,33.59
2022-08-05T12:34:31.591Z,33.53
2022-08-05T12:37:10.800Z,33.29
2022-08-05T12:39:51.183Z,33.25
2022-08-05T12:42:25.162Z,33.23
2022-08-05T12:45:08.923Z,33.53
2022-08-05T12:47:43.500Z,33.51
2022-08-05T12:50:28.332Z,33.31
2022-08-05T12:53:00.873Z,33.63
2022-08-05T12:55:32.813Z,33.74
2022-08-05T12:58:50.751Z,34.21
2022-08-05T13:01:59.783Z,34.16
2022-08-05T13:03:43.329Z,34.58
2022-08-05T13:06:19.975Z,34.21
2022-08-05T13:08:52.106Z,34.04
2022-08-05T13:12:01.086Z,33.97
2022-08-05T13:14:14.744Z,33.09
2022-08-05T13:16:56.632Z,33.22
2022-08-05T13:19:27.571Z,33.35
2022-08-05T13:22:27.992Z,32.09
2022-08-05T13:25:05.168Z,32.04
2022-08-05T13:27:38.195Z,31.95
2022-08-05T13:30:33.726Z,31.74
2022-08-05T13:33:01.498Z,32.50
2022-08-05T13:35:42.716Z,32.56
2022-08-05T13:38:28.182Z,32.93
2022-08-05T13:41:00.714Z,32.91
2022-08-05T13:43:45.034Z,32.72
2022-08-05T13:46:30.678Z,32.18
2022-08-05T13:49:11.861Z,32.56
2022-08-05T13:51:46.604Z,32.38
2022-08-05T13:54:17.186Z,32.06
2022-08-05T13:56:50.947Z,31.57
2022-08-05T13:59:24.267Z,31.69
2022-08-05T14:01:57.528Z,31.09
2022-08-05T14:04:51.333Z,30.95
2022-08-05T14:07:57.010Z,31.34
2022-08-05T14:10:13.455Z,30.86
2022-08-05T14:12:48.701Z,31.00
2022-08-05T14:16:08.114Z,30.86
2022-08-05T14:18:14.947Z,30.53
2022-08-05T14:20:48.782Z,30.92
2022-08-05T14:23:24.728Z,30.97
2022-08-05T14:25:59.017Z,30.73
2022-08-05T14:28:29.721Z,30.92
2022-08-05T14:30:59.188Z,31.25
2022-08-05T14:33:56.599Z,29.32
2022-08-05T14:36:21.670Z,28.33
2022-08-05T14:38:52.080Z,28.16
2022-08-05T14:41:21.060Z,27.36
2022-08-05T14:44:01.646Z,27.20
2022-08-05T14:46:38.380Z,28.88
2022-08-05T14:49:08.435Z,29.39
2022-08-05T14:51:42.682Z,29.07
2022-08-05T14:54:27.918Z,29.08
2022-08-05T14:56:59.797Z,28.23
2022-08-05T14:59:35.451Z,26.71
2022-08-05T15:02:15.112Z,26.82
2022-08-05T15:04:47.885Z,27.16
2022-08-05T15:08:10.851Z,29.20
2022-08-05T15:10:10.133Z,30.93
2022-08-05T15:12:59.805Z,33.52
2022-08-05T15:15:55.049Z,37.50
2022-08-05T15:18:17.451Z,42.02
2022-08-05T15:20:48.070Z,44.05
2022-08-05T15:23:18.659Z,45.97
2022-08-05T15:25:53.861Z,49.34
2022-08-05T15:28:27.462Z,49.58
2022-08-05T15:30:56.984Z,51.65
2022-08-05T15:34:04.787Z,52.52
2022-08-05T15:36:17.412Z,53.31
2022-08-05T15:41:03.534Z,53.58
2022-08-05T15:41:57.591Z,52.36
2022-08-05T15:44:29.954Z,52.96
2022-08-05T15:46:59.658Z,54.72
2022-08-05T15:49:48.183Z,54.59
2022-08-05T15:52:51.618Z,55.01
2022-08-05T15:55:15.448Z,54.42
2022-08-05T15:57:49.087Z,54.76
2022-08-05T16:00:32.624Z,54.98
2022-08-05T16:03:07.755Z,51.82
2022-08-05T16:05:39.026Z,51.49
2022-08-05T16:08:11.267Z,52.72
2022-08-05T16:10:46.489Z,52.91
2022-08-05T16:13:19.388Z,53.72
2022-08-05T16:15:53.195Z,53.45
2022-08-05T16:18:21.979Z,54.18
2022-08-05T16:21:00.136Z,52.25
2022-08-05T16:23:54.620Z,53.60
2022-08-05T16:26:26.522Z,54.00
2022-08-05T16:28:56.578Z,52.81
2022-08-05T16:31:25.444Z,52.20
2022-08-05T16:33:54.547Z,51.70
2022-08-05T16:36:24.128Z,51.19
2022-08-05T16:38:55.671Z,49.08
2022-08-05T16:42:12.129Z,48.84
2022-08-05T16:44:17.815Z,47.82
2022-08-05T16:46:56.059Z,47.17
2022-08-05T16:49:26.803Z,46.91
2022-08-05T16:51:58.019Z,46.19
2022-08-05T16:54:32.956Z,47.46
2022-08-05T16:57:03.479Z,46.71
2022-08-05T16:59:35.536Z,47.32
2022-08-05T17:02:24.591Z,46.49
2022-08-05T17:04:57.119Z,47.02
2022-08-05T17:07:39.054Z,48.00
2022-08-05T17:10:13.292Z,46.85
2022-08-05T17:12:51.103Z,48.52
2022-08-05T17:15:21.231Z,47.43
2022-08-05T17:17:55.120Z,45.65
2022-08-05T17:20:26.613Z,45.26
2022-08-05T17:22:57.695Z,45.61
2022-08-05T17:25:40.067Z,45.29
2022-08-05T17:28:11.333Z,46.04
2022-08-05T17:30:51.907Z,46.56
2022-08-05T17:33:21.788Z,47.04
2022-08-05T17:36:07.376Z,45.70
2022-08-05T17:38:39.714Z,44.75
2022-08-05T17:41:11.557Z,43.43
2022-08-05T17:43:54.424Z,41.25
2022-08-05T17:46:23.991Z,40.58
2022-08-05T17:48:52.673Z,40.91
2022-08-05T17:51:22.262Z,40.48
2022-08-05T17:53:54.645Z,40.74
2022-08-05T17:56:23.869Z,42.09
2022-08-05T17:58:58.927Z,43.71
2022-08-05T18:01:27.807Z,43.85
2022-08-05T18:03:59.084Z,44.11
2022-08-05T18:06:33.208Z,43.54
2022-08-05T18:09:03.713Z,43.65
2022-08-05T18:11:33.870Z,43.85
2022-08-05T18:14:07.437Z,43.59
2022-08-05T18:16:50.912Z,43.46
2022-08-05T18:19:22.767Z,44.13
2022-08-05T18:22:07.692Z,46.45
2022-08-05T18:24:39.419Z,46.40
2022-08-05T18:27:12.579Z,45.96
2022-08-05T18:29:54.057Z,45.93
2022-08-05T18:32:27.840Z,45.45
2022-08-05T18:34:58.872Z,45.27
2022-08-05T18:37:33.963Z,44.70
2022-08-05T18:41:50.184Z,44.69
2022-08-05T18:42:59.722Z,44.67
2022-08-05T18:45:41.202Z,45.05
2022-08-05T18:48:12.062Z,45.15
2022-08-05T18:52:02.813Z,46.27
2022-08-05T18:54:07.097Z,48.70
2022-08-05T18:56:38.550Z,48.16
2022-08-05T18:59:44.142Z,48.92
2022-08-05T19:01:58.466Z,49.69
2022-08-05T19:04:27.542Z,50.24
2022-08-05T19:06:56.420Z,49.89
2022-08-05T19:09:25.245Z,49.23
2022-08-05T19:12:00.362Z,50.71
2022-08-05T19:14:37.729Z,51.74
2022-08-05T19:17:15.662Z,51.27
2022-08-05T19:19:46.367Z,50.90
2022-08-05T19:22:17.100Z,50.37
2022-08-05T19:24:56.298Z,51.33
2022-08-05T19:27:27.727Z,51.24
2022-08-05T19:29:59.576Z,51.26
2022-08-05T19:32:29.820Z,51.61
2022-08-05T19:34:58.731Z,51.60
2022-08-05T19:38:04.197Z,51.22
2022-08-05T19:40:24.357Z,51.25
2022-08-05T19:43:00.852Z,51.26
2022-08-05T19:45:36.980Z,51.94
2022-08-05T19:48:14.312Z,50.93
2022-08-05T19:50:43.960Z,50.84
2022-08-05T19:53:14.153Z,51.27
2022-08-05T19:56:14.766Z,52.26
2022-08-05T19:58:32.070Z,52.87
2022-08-05T20:01:28.075Z,53.09
2022-08-05T20:03:59.360Z,52.70
2022-08-05T20:06:29.580Z,53.63
2022-08-05T20:09:06.194Z,54.15
2022-08-05T20:11:47.996Z,54.40
2022-08-05T20:14:26.897Z,54.30
2022-08-05T20:16:59.479Z,55.24
2022-08-05T20:19:36.116Z,55.49
2022-08-05T20:22:09.956Z,55.08
2022-08-05T20:24:41.680Z,55.27
2022-08-05T20:27:11.161Z,54.91
2022-08-05T20:29:40.531Z,55.20
2022-08-05T20:32:10.377Z,54.86
2022-08-05T20:34:43.112Z,55.18
2022-08-05T20:37:17.711Z,55.52
2022-08-05T20:39:53.256Z,55.94
2022-08-05T20:42:28.172Z,56.28
2022-08-05T20:44:57.187Z,56.76
2022-08-05T20:47:32.184Z,57.40
2022-08-05T20:50:03.171Z,57.47
2022-08-05T20:52:36.246Z,57.94
2022-08-05T20:55:54.785Z,57.96
2022-08-05T20:57:59.839Z,57.66
2022-08-05T21:00:49.712Z,57.63
2022-08-05T21:03:20.535Z,57.66
2022-08-05T21:05:54.505Z,57.75
2022-08-05T21:08:26.891Z,57.64
2022-08-05T21:11:09.860Z,57.24
2022-08-05T21:13:47.443Z,57.78
2022-08-05T21:16:29.444Z,57.84
2022-08-05T21:19:00.907Z,57.90
2022-08-05T21:21:39.165Z,57.87
2022-08-05T21:24:15.427Z,57.05
2022-08-05T21:26:53.761Z,55.98
2022-08-05T21:29:31.858Z,54.08
2022-08-05T21:32:02.301Z,53.87
2022-08-05T21:34:33.067Z,53.19
2022-08-05T21:37:08.296Z,53.00
2022-08-05T21:39:40.458Z,52.41
2022-08-05T21:42:40.864Z,52.62
2022-08-05T21:45:00.625Z,51.79
2022-08-05T21:47:54.836Z,51.96
2022-08-05T21:50:19.717Z,51.50
2022-08-05T21:52:53.612Z,50.85
2022-08-05T21:56:01.006Z,50.45
2022-08-05T21:58:17.245Z,48.90
2022-08-05T22:00:50.937Z,48.33
2022-08-05T22:03:20.519Z,48.49
2022-08-05T22:06:09.246Z,47.51
2022-08-05T22:08:42.450Z,47.50
2022-08-05T22:11:15.580Z,46.28
2022-08-05T22:14:06.602Z,45.35
2022-08-05T22:16:50.775Z,45.34
2022-08-05T22:20:02.226Z,45.31
2022-08-05T22:22:10.083Z,43.62
2022-08-05T22:24:57.755Z,44.08
2022-08-05T22:28:10.474Z,44.19
2022-08-05T22:30:35.791Z,44.49
2022-08-05T22:33:15.722Z,44.20
2022-08-05T22:35:48.936Z,43.42
2022-08-05T22:38:18.943Z,43.51
2022-08-05T22:40:54.918Z,43.73
2022-08-05T22:43:36.713Z,42.45
2022-08-05T22:46:13.525Z,42.70
2022-08-05T22:48:52.599Z,42.52
2022-08-05T22:51:23.106Z,42.88
2022-08-05T22:54:10.326Z,43.14
2022-08-05T22:56:40.715Z,42.57
2022-08-05T22:59:48.576Z,42.17
2022-08-05T23:02:05.685Z,41.40
2022-08-05T23:04:36.719Z,41.76
2022-08-05T23:07:07.280Z,41.91
2022-08-05T23:09:58.141Z,41.20
2022-08-05T23:12:28.426Z,41.64
2022-08-05T23:14:57.806Z,41.52
2022-08-05T23:17:34.569Z,41.56
2022-08-05T23:20:16.831Z,41.31
2022-08-05T23:22:48.346Z,41.63
2022-08-05T23:25:51.779Z,41.21
2022-08-05T23:28:08.746Z,41.37
2022-08-05T23:30:40.194Z,40.75
2022-08-05T23:33:16.246Z,41.28
2022-08-05T23:35:52.424Z,40.76
2022-08-05T23:38:26.180Z,40.47
2022-08-05T23:40:55.864Z,40.53
2022-08-05T23:44:02.948Z,40.26
2022-08-05T23:46:21.251Z,40.34
2022-08-05T23:49:00.325Z,40.60
2022-08-05T23:51:51.654Z,40.14
2022-08-05T23:54:25.764Z,40.30
2022-08-05T23:57:03.159Z,40.11
